createdAt,value
2019-04-30T00:02:15.887Z,8.60
2019-04-30T00:04:49.309Z,8.46
2019-04-30T00:07:21.248Z,8.34
2019-04-30T00:09:53.930Z,8.26
2019-04-30T00:12:22.163Z,8.16
2019-04-30T00:14:54.926Z,8.02
2019-04-30T00:17:28.186Z,8.02
2019-04-30T00:19:59.894Z,7.93
2019-04-30T00:22:34.199Z,7.96
2019-04-30T00:25:02.937Z,8.03
2019-04-30T00:27:31.679Z,8.09
2019-04-30T00:30:04.849Z,8.01
2019-04-30T00:32:39.300Z,7.93
2019-04-30T00:35:07.159Z,7.92
2019-04-30T00:37:35.528Z,7.88
2019-04-30T00:40:05.988Z,7.80
2019-04-30T00:42:35.778Z,7.77
2019-04-30T00:45:12.130Z,7.75
2019-04-30T00:47:44.510Z,7.72
2019-04-30T00:50:15.001Z,7.68
2019-04-30T00:52:45.759Z,7.55
2019-04-30T00:55:15.017Z,7.48
2019-04-30T00:57:47.596Z,7.39
2019-04-30T01:00:19.735Z,7.36
2019-04-30T01:02:53.122Z,7.33
2019-04-30T01:05:25.480Z,7.25
2019-04-30T01:07:55.070Z,7.19
2019-04-30T01:10:27.178Z,7.17
2019-04-30T01:13:01.843Z,7.20
2019-04-30T01:15:26.558Z,7.14
2019-04-30T01:17:55.513Z,7.00
2019-04-30T01:20:31.104Z,6.93
2019-04-30T01:22:55.021Z,6.87
2019-04-30T01:25:28.753Z,6.75
2019-04-30T01:27:58.557Z,6.62
2019-04-30T01:30:28.480Z,6.59
2019-04-30T01:32:58.818Z,6.64
2019-04-30T01:35:31.290Z,6.65
2019-04-30T01:37:59.619Z,6.59
2019-04-30T01:40:29.143Z,6.64
2019-04-30T01:42:59.409Z,6.60
2019-04-30T01:45:31.626Z,6.47
2019-04-30T01:48:08.466Z,6.50
2019-04-30T01:50:29.584Z,6.48
2019-04-30T01:52:59.127Z,6.50
2019-04-30T01:55:45.407Z,6.52
2019-04-30T01:58:21.052Z,6.52
2019-04-30T02:00:53.105Z,6.56
2019-04-30T02:03:21.852Z,6.55
2019-04-30T02:05:50.777Z,6.46
2019-04-30T02:08:19.773Z,6.43
2019-04-30T02:10:51.360Z,6.37
2019-04-30T02:13:19.980Z,6.43
2019-04-30T02:15:51.557Z,6.51
2019-04-30T02:18:20.460Z,6.53
2019-04-30T02:20:50.646Z,6.60
2019-04-30T02:23:19.769Z,6.68
2019-04-30T02:25:48.966Z,6.73
2019-04-30T02:28:19.535Z,6.79
2019-04-30T02:30:50.560Z,6.81
2019-04-30T02:33:19.942Z,6.79
2019-04-30T02:36:03.831Z,6.73
2019-04-30T02:38:34.360Z,6.67
2019-04-30T02:41:04.244Z,6.58
2019-04-30T02:43:33.357Z,6.50
2019-04-30T02:46:02.538Z,6.41
2019-04-30T02:48:33.162Z,6.43
2019-04-30T02:51:03.762Z,6.52
2019-04-30T02:54:29.480Z,6.59
2019-04-30T02:57:11.786Z,6.64
2019-04-30T03:00:00.001Z,6.72
2019-04-30T03:02:33.075Z,6.79
2019-04-30T03:05:01.842Z,6.88
2019-04-30T03:07:32.608Z,6.90
2019-04-30T03:10:01.588Z,6.89
2019-04-30T03:12:33.617Z,6.93
2019-04-30T03:15:03.296Z,6.95
2019-04-30T03:17:47.346Z,6.97
2019-04-30T03:20:46.690Z,6.94
2019-04-30T03:23:15.632Z,6.94
2019-04-30T03:25:50.083Z,6.92
2019-04-30T03:28:20.144Z,6.89
2019-04-30T03:30:51.887Z,6.86
2019-04-30T03:33:22.904Z,6.82
2019-04-30T03:35:54.826Z,6.86
2019-04-30T03:38:25.356Z,6.87
2019-04-30T03:40:56.032Z,6.85
2019-04-30T03:43:24.637Z,6.89
2019-04-30T03:45:53.584Z,6.95
2019-04-30T03:48:22.136Z,6.95
2019-04-30T03:50:56.566Z,6.94
2019-04-30T03:53:21.374Z,6.98
2019-04-30T03:55:51.371Z,6.96
2019-04-30T03:58:21.462Z,6.93
2019-04-30T04:01:10.151Z,6.91
2019-04-30T04:04:00.370Z,6.90
2019-04-30T04:06:34.942Z,6.86
2019-04-30T04:09:22.027Z,6.86
2019-04-30T04:11:51.803Z,6.85
2019-04-30T04:14:25.927Z,6.76
2019-04-30T04:16:59.967Z,6.73
2019-04-30T04:19:29.212Z,6.71
2019-04-30T04:22:00.151Z,6.69
2019-04-30T04:24:30.393Z,6.74
2019-04-30T04:27:02.227Z,6.76
2019-04-30T04:29:32.397Z,6.87
2019-04-30T04:32:03.959Z,7.02
2019-04-30T04:34:32.881Z,7.03
2019-04-30T04:37:02.864Z,7.08
2019-04-30T04:39:33.705Z,7.18
2019-04-30T04:42:02.321Z,7.30
2019-04-30T04:44:31.337Z,7.39
2019-04-30T04:47:00.315Z,7.49
2019-04-30T04:49:31.729Z,7.57
2019-04-30T04:52:00.683Z,7.73
2019-04-30T04:54:30.126Z,7.77
2019-04-30T04:57:13.974Z,7.80
2019-04-30T04:59:34.732Z,7.91
2019-04-30T05:02:25.521Z,7.99
2019-04-30T05:04:56.893Z,8.07
2019-04-30T05:07:25.949Z,8.19
2019-04-30T05:09:54.672Z,8.17
2019-04-30T05:12:23.278Z,8.13
2019-04-30T05:14:53.533Z,8.13
2019-04-30T05:17:22.128Z,8.19
2019-04-30T05:19:51.392Z,8.06
2019-04-30T05:22:21.650Z,8.12
2019-04-30T05:24:50.221Z,8.11
2019-04-30T05:27:19.796Z,8.17
2019-04-30T05:29:49.875Z,8.18
2019-04-30T05:32:19.746Z,8.15
2019-04-30T05:34:49.681Z,8.16
2019-04-30T05:37:18.792Z,8.08
2019-04-30T05:39:48.919Z,8.14
2019-04-30T05:42:19.833Z,8.31
2019-04-30T05:44:50.785Z,8.30
2019-04-30T05:47:19.754Z,8.37
2019-04-30T05:49:50.647Z,8.41
2019-04-30T05:52:21.164Z,8.51
2019-04-30T05:54:50.070Z,8.53
2019-04-30T05:57:19.720Z,8.63
2019-04-30T05:59:48.888Z,8.71
2019-04-30T06:02:21.052Z,8.63
2019-04-30T06:04:51.012Z,8.44
2019-04-30T06:07:21.986Z,8.60
2019-04-30T06:09:59.763Z,8.88
2019-04-30T06:12:46.257Z,8.93
2019-04-30T06:15:22.140Z,9.32
2019-04-30T06:18:00.726Z,9.40
2019-04-30T06:20:22.692Z,9.82
2019-04-30T06:22:52.174Z,10.06
2019-04-30T06:25:31.859Z,10.01
2019-04-30T06:27:51.813Z,10.25
2019-04-30T06:30:23.858Z,10.70
2019-04-30T06:32:52.906Z,10.95
2019-04-30T06:35:21.745Z,11.01
2019-04-30T06:37:52.535Z,10.97
2019-04-30T06:40:21.268Z,10.87
2019-04-30T06:42:50.180Z,11.10
2019-04-30T06:45:21.316Z,11.79
2019-04-30T06:47:50.505Z,12.03
2019-04-30T06:50:19.498Z,11.74
2019-04-30T06:52:56.374Z,11.89
2019-04-30T06:55:19.401Z,11.28
2019-04-30T06:57:50.375Z,11.30
2019-04-30T07:00:20.838Z,11.66
2019-04-30T07:02:49.771Z,12.01
2019-04-30T07:05:18.685Z,11.43
2019-04-30T07:08:09.299Z,11.82
2019-04-30T07:10:36.666Z,12.06
2019-04-30T07:13:29.675Z,12.13
2019-04-30T07:15:58.710Z,11.83
2019-04-30T07:18:29.635Z,11.83
2019-04-30T07:21:00.273Z,11.77
2019-04-30T07:23:29.210Z,11.79
2019-04-30T07:25:59.610Z,11.79
2019-04-30T07:28:46.547Z,11.79
2019-04-30T07:31:13.868Z,11.48
2019-04-30T07:33:40.890Z,11.68
2019-04-30T07:36:10.008Z,11.69
2019-04-30T07:38:45.546Z,11.41
2019-04-30T07:41:12.164Z,11.08
2019-04-30T07:43:40.747Z,10.99
2019-04-30T07:46:11.502Z,11.30
2019-04-30T07:48:42.096Z,11.21
2019-04-30T07:51:12.886Z,11.58
2019-04-30T07:53:43.632Z,11.58
2019-04-30T07:56:25.721Z,11.71
2019-04-30T07:58:44.399Z,11.86
2019-04-30T08:01:16.043Z,12.12
2019-04-30T08:04:08.881Z,12.18
2019-04-30T08:06:40.003Z,12.28
2019-04-30T08:09:11.280Z,11.85
2019-04-30T08:11:43.907Z,12.52
2019-04-30T08:14:12.562Z,12.29
2019-04-30T08:16:44.717Z,12.04
2019-04-30T08:19:13.472Z,12.01
2019-04-30T08:21:45.964Z,11.96
2019-04-30T08:24:14.524Z,12.34
2019-04-30T08:26:43.670Z,12.44
2019-04-30T08:29:12.580Z,12.45
2019-04-30T08:31:42.774Z,12.60
2019-04-30T08:34:11.380Z,12.86
2019-04-30T08:36:40.801Z,12.77
2019-04-30T08:39:10.699Z,12.83
2019-04-30T08:41:40.816Z,13.15
2019-04-30T08:44:12.778Z,13.07
2019-04-30T08:46:44.839Z,13.11
2019-04-30T08:49:14.040Z,12.93
2019-04-30T08:51:42.970Z,12.96
2019-04-30T08:54:11.534Z,13.30
2019-04-30T08:56:40.258Z,13.36
2019-04-30T08:59:11.408Z,13.30
2019-04-30T09:01:41.841Z,13.14
2019-04-30T09:04:10.582Z,13.42
2019-04-30T09:06:39.729Z,13.59
2019-04-30T09:09:24.166Z,13.34
2019-04-30T09:11:56.036Z,13.62
2019-04-30T09:14:45.538Z,13.68
2019-04-30T09:17:14.449Z,13.79
2019-04-30T09:19:44.479Z,13.85
2019-04-30T09:22:15.235Z,14.06
2019-04-30T09:24:45.556Z,13.87
2019-04-30T09:27:15.562Z,14.17
2019-04-30T09:29:46.266Z,14.33
2019-04-30T09:32:19.109Z,14.50
2019-04-30T09:34:48.963Z,14.31
2019-04-30T09:37:18.763Z,14.42
2019-04-30T09:39:49.266Z,14.30
2019-04-30T09:42:19.663Z,14.13
2019-04-30T09:44:54.242Z,14.17
2019-04-30T09:47:22.204Z,13.96
2019-04-30T09:49:51.529Z,13.82
2019-04-30T09:52:21.870Z,14.16
2019-04-30T09:54:52.719Z,14.49
2019-04-30T09:57:21.500Z,14.85
2019-04-30T09:59:51.750Z,14.75
2019-04-30T10:02:21.909Z,14.77
2019-04-30T10:04:52.703Z,15.03
2019-04-30T10:07:21.776Z,14.62
2019-04-30T10:09:51.051Z,14.74
2019-04-30T10:12:19.738Z,15.20
2019-04-30T10:14:49.649Z,14.93
2019-04-30T10:17:39.058Z,15.24
2019-04-30T10:20:10.744Z,14.79
2019-04-30T10:22:40.840Z,14.95
2019-04-30T10:25:09.685Z,14.92
2019-04-30T10:27:39.628Z,14.72
2019-04-30T10:30:12.465Z,14.90
2019-04-30T10:32:41.034Z,15.20
2019-04-30T10:35:09.587Z,15.10
2019-04-30T10:37:38.891Z,15.20
2019-04-30T10:40:10.364Z,15.05
2019-04-30T10:42:40.596Z,15.11
2019-04-30T10:45:09.984Z,15.31
2019-04-30T10:47:39.803Z,15.57
2019-04-30T10:50:09.877Z,15.84
2019-04-30T10:52:39.310Z,15.87
2019-04-30T10:55:09.367Z,15.94
2019-04-30T10:57:39.616Z,15.92
2019-04-30T11:00:15.646Z,15.75
2019-04-30T11:02:44.227Z,15.89
2019-04-30T11:05:18.783Z,15.80
2019-04-30T11:07:49.728Z,15.90
2019-04-30T11:10:20.445Z,15.90
2019-04-30T11:12:49.025Z,15.86
2019-04-30T11:15:20.636Z,15.97
2019-04-30T11:17:49.614Z,15.98
2019-04-30T11:20:21.736Z,16.01
2019-04-30T11:22:49.468Z,15.93
2019-04-30T11:25:24.571Z,16.12
2019-04-30T11:27:54.278Z,16.30
2019-04-30T11:30:24.415Z,15.97
2019-04-30T11:32:57.400Z,16.02
2019-04-30T11:35:26.139Z,15.80
2019-04-30T11:37:55.088Z,16.34
2019-04-30T11:40:34.465Z,16.45
2019-04-30T11:43:03.607Z,16.30
2019-04-30T11:46:18.698Z,16.26
2019-04-30T11:48:48.988Z,16.41
2019-04-30T11:51:19.395Z,16.46
2019-04-30T11:53:49.063Z,16.93
2019-04-30T11:56:19.184Z,16.93
2019-04-30T11:58:51.908Z,16.89
2019-04-30T12:01:23.016Z,17.02
2019-04-30T12:03:53.160Z,17.02
2019-04-30T12:06:24.063Z,17.16
2019-04-30T12:09:09.147Z,16.90
2019-04-30T12:11:37.889Z,17.41
2019-04-30T12:14:07.926Z,17.53
2019-04-30T12:16:36.682Z,17.67
2019-04-30T12:19:05.349Z,17.84
2019-04-30T12:21:33.888Z,17.34
2019-04-30T12:24:05.928Z,17.36
2019-04-30T12:26:34.838Z,17.60
2019-04-30T12:29:03.803Z,17.34
2019-04-30T12:31:34.084Z,17.52
2019-04-30T12:34:02.662Z,17.63
2019-04-30T12:36:35.006Z,17.71
2019-04-30T12:39:06.315Z,17.80
2019-04-30T12:41:34.910Z,17.69
2019-04-30T12:44:08.118Z,17.49
2019-04-30T12:46:39.060Z,17.76
2019-04-30T12:49:11.460Z,17.86
2019-04-30T12:52:19.653Z,17.82
2019-04-30T12:55:22.495Z,17.99
2019-04-30T12:57:58.838Z,17.93
2019-04-30T13:00:24.607Z,17.59
2019-04-30T13:02:56.715Z,17.79
2019-04-30T13:05:29.634Z,18.12
2019-04-30T13:08:00.162Z,18.03
2019-04-30T13:10:29.246Z,17.79
2019-04-30T13:12:59.913Z,18.03
2019-04-30T13:15:31.087Z,17.89
2019-04-30T13:18:01.293Z,18.30
2019-04-30T13:20:29.854Z,18.20
2019-04-30T13:23:00.856Z,18.12
2019-04-30T13:25:36.819Z,18.01
2019-04-30T13:28:11.978Z,18.54
2019-04-30T13:30:41.356Z,18.23
2019-04-30T13:33:22.555Z,18.12
2019-04-30T13:35:52.985Z,18.34
2019-04-30T13:38:29.163Z,18.37
2019-04-30T13:41:08.878Z,18.58
2019-04-30T13:44:04.408Z,18.48
2019-04-30T13:46:34.393Z,18.37
2019-04-30T13:49:08.050Z,18.22
2019-04-30T13:51:35.866Z,17.98
2019-04-30T13:54:04.654Z,17.78
2019-04-30T13:56:33.536Z,18.23
2019-04-30T13:59:02.454Z,18.37
2019-04-30T14:01:33.693Z,18.55
2019-04-30T14:04:24.520Z,18.47
2019-04-30T14:07:05.131Z,18.65
2019-04-30T14:09:35.726Z,18.75
2019-04-30T14:12:04.291Z,18.82
2019-04-30T14:14:33.232Z,19.06
2019-04-30T14:17:06.365Z,18.66
2019-04-30T14:19:38.492Z,18.52
2019-04-30T14:22:08.949Z,18.49
2019-04-30T14:24:40.909Z,18.25
2019-04-30T14:27:09.973Z,18.64
2019-04-30T14:29:39.573Z,18.71
2019-04-30T14:32:11.239Z,18.66
2019-04-30T14:34:42.878Z,18.99
2019-04-30T14:37:10.775Z,19.01
2019-04-30T14:39:40.391Z,18.78
2019-04-30T14:42:11.072Z,18.52
2019-04-30T14:44:40.643Z,18.63
2019-04-30T14:47:22.401Z,18.62
2019-04-30T14:50:12.467Z,18.75
2019-04-30T14:52:48.303Z,18.85
2019-04-30T14:55:39.656Z,19.12
2019-04-30T14:58:34.250Z,19.01
2019-04-30T15:01:27.131Z,19.07
2019-04-30T15:03:59.321Z,19.23
2019-04-30T15:06:30.627Z,19.51
2019-04-30T15:08:59.213Z,19.23
2019-04-30T15:11:30.170Z,19.25
2019-04-30T15:13:59.212Z,18.67
2019-04-30T15:16:29.165Z,18.88
2019-04-30T15:18:59.430Z,19.32
2019-04-30T15:21:29.671Z,19.32
2019-04-30T15:24:11.972Z,18.98
2019-04-30T15:26:41.827Z,19.00
2019-04-30T15:29:14.407Z,19.23
2019-04-30T15:31:42.633Z,19.00
2019-04-30T15:34:13.983Z,19.01
2019-04-30T15:36:42.719Z,19.06
2019-04-30T15:39:33.093Z,18.95
2019-04-30T15:42:03.997Z,19.07
2019-04-30T15:44:40.143Z,19.17
2019-04-30T15:47:05.249Z,19.10
2019-04-30T15:49:33.880Z,19.14
2019-04-30T15:52:11.067Z,18.86
2019-04-30T15:54:41.329Z,18.78
2019-04-30T15:57:10.254Z,18.48
2019-04-30T15:59:46.984Z,18.33
2019-04-30T16:02:53.209Z,18.18
2019-04-30T16:05:30.813Z,17.90
2019-04-30T16:08:19.048Z,17.93
2019-04-30T16:11:12.775Z,17.81
2019-04-30T16:14:23.726Z,17.94
2019-04-30T16:17:07.062Z,17.86
2019-04-30T16:19:35.637Z,17.95
2019-04-30T16:22:06.131Z,17.90
2019-04-30T16:24:35.126Z,17.88
2019-04-30T16:27:03.748Z,17.82
2019-04-30T16:29:34.631Z,17.92
2019-04-30T16:32:03.233Z,17.90
2019-04-30T16:34:33.354Z,17.99
2019-04-30T16:37:01.944Z,18.15
2019-04-30T16:39:32.874Z,18.12
2019-04-30T16:42:01.806Z,18.36
2019-04-30T16:44:32.593Z,18.22
2019-04-30T16:47:13.061Z,18.22
2019-04-30T16:49:38.697Z,18.28
2019-04-30T16:52:09.154Z,18.05
2019-04-30T16:54:39.568Z,18.06
2019-04-30T16:57:10.308Z,18.05
2019-04-30T16:59:41.909Z,17.94
2019-04-30T17:02:14.563Z,17.82
2019-04-30T17:04:58.074Z,17.72
2019-04-30T17:07:56.420Z,17.72
2019-04-30T17:10:32.131Z,17.68
2019-04-30T17:13:19.573Z,17.69
2019-04-30T17:15:49.344Z,17.72
2019-04-30T17:18:19.098Z,17.56
2019-04-30T17:20:49.095Z,17.68
2019-04-30T17:23:19.299Z,17.82
2019-04-30T17:25:48.114Z,17.95
2019-04-30T17:28:18.664Z,17.97
2019-04-30T17:30:49.016Z,17.67
2019-04-30T17:33:17.336Z,17.69
2019-04-30T17:35:49.856Z,17.64
2019-04-30T17:38:21.292Z,17.78
2019-04-30T17:40:49.986Z,17.96
2019-04-30T17:43:18.549Z,17.97
2019-04-30T17:45:49.195Z,18.01
2019-04-30T17:48:17.631Z,17.89
2019-04-30T17:50:46.763Z,17.96
2019-04-30T17:53:15.342Z,18.05
2019-04-30T17:55:43.944Z,18.08
2019-04-30T17:58:12.934Z,17.88
2019-04-30T18:00:45.592Z,17.76
2019-04-30T18:03:14.436Z,17.53
2019-04-30T18:05:42.992Z,17.15
2019-04-30T18:08:11.566Z,16.93
2019-04-30T18:10:40.891Z,16.77
2019-04-30T18:13:09.793Z,16.71
2019-04-30T18:15:38.364Z,16.58
2019-04-30T18:18:15.629Z,16.52
2019-04-30T18:20:51.541Z,16.37
2019-04-30T18:23:51.244Z,16.15
2019-04-30T18:26:19.809Z,15.91
2019-04-30T18:28:48.690Z,15.70
2019-04-30T18:31:20.688Z,15.56
2019-04-30T18:33:51.475Z,15.43
2019-04-30T18:36:19.591Z,15.28
2019-04-30T18:38:50.310Z,15.08
2019-04-30T18:41:19.412Z,14.96
2019-04-30T18:43:48.754Z,14.68
2019-04-30T18:46:19.149Z,14.53
2019-04-30T18:48:49.419Z,14.51
2019-04-30T18:51:35.878Z,14.48
2019-04-30T18:53:50.934Z,14.42
2019-04-30T18:56:21.840Z,14.39
2019-04-30T18:58:51.038Z,14.35
2019-04-30T19:01:19.941Z,14.27
2019-04-30T19:03:49.260Z,14.20
2019-04-30T19:06:25.903Z,14.14
2019-04-30T19:09:04.082Z,14.07
2019-04-30T19:11:39.497Z,13.94
2019-04-30T19:14:45.543Z,13.81
2019-04-30T19:17:30.874Z,13.65
2019-04-30T19:20:18.787Z,13.46
2019-04-30T19:22:47.838Z,13.42
2019-04-30T19:25:19.131Z,13.27
2019-04-30T19:27:48.283Z,13.12
2019-04-30T19:30:19.120Z,12.99
2019-04-30T19:32:49.162Z,12.83
2019-04-30T19:35:18.761Z,12.74
2019-04-30T19:37:48.700Z,12.65
2019-04-30T19:40:19.022Z,12.62
2019-04-30T19:42:50.777Z,12.47
2019-04-30T19:45:21.485Z,12.36
2019-04-30T19:47:50.068Z,12.32
2019-04-30T19:50:22.067Z,12.26
2019-04-30T19:52:52.675Z,12.22
2019-04-30T19:55:24.672Z,12.20
2019-04-30T19:57:53.266Z,12.20
2019-04-30T20:00:21.923Z,12.07
2019-04-30T20:02:50.664Z,12.05
2019-04-30T20:05:19.535Z,11.92
2019-04-30T20:07:49.341Z,11.77
2019-04-30T20:10:19.550Z,11.72
2019-04-30T20:12:49.920Z,11.71
2019-04-30T20:15:21.727Z,11.63
2019-04-30T20:17:49.905Z,11.56
2019-04-30T20:20:18.946Z,11.48
2019-04-30T20:22:47.626Z,11.31
2019-04-30T20:25:16.369Z,11.09
2019-04-30T20:27:45.473Z,10.97
2019-04-30T20:30:14.438Z,10.94
2019-04-30T20:32:43.051Z,10.85
2019-04-30T20:35:13.274Z,10.84
2019-04-30T20:38:04.154Z,10.86
2019-04-30T20:40:43.275Z,10.90
2019-04-30T20:43:08.455Z,10.84
2019-04-30T20:45:36.651Z,10.78
2019-04-30T20:48:05.241Z,10.75
2019-04-30T20:50:34.001Z,10.68
2019-04-30T20:53:02.583Z,10.62
2019-04-30T20:55:31.329Z,10.53
2019-04-30T20:57:59.915Z,10.51
2019-04-30T21:00:29.011Z,10.62
2019-04-30T21:02:59.739Z,10.60
2019-04-30T21:05:29.943Z,10.59
2019-04-30T21:08:00.074Z,10.51
2019-04-30T21:10:29.687Z,10.37
2019-04-30T21:12:58.401Z,10.32
2019-04-30T21:15:29.727Z,10.32
2019-04-30T21:17:58.774Z,10.24
2019-04-30T21:20:29.865Z,10.12
2019-04-30T21:23:00.011Z,10.12
2019-04-30T21:25:32.055Z,9.99
2019-04-30T21:28:03.177Z,9.99
2019-04-30T21:30:32.482Z,9.82
2019-04-30T21:33:22.378Z,9.75
2019-04-30T21:35:55.499Z,9.62
2019-04-30T21:38:24.134Z,9.62
2019-04-30T21:40:52.678Z,9.52
2019-04-30T21:43:23.479Z,9.43
2019-04-30T21:45:52.048Z,9.56
2019-04-30T21:48:20.620Z,9.53
2019-04-30T21:50:49.771Z,9.64
2019-04-30T21:53:19.591Z,9.63
2019-04-30T21:55:49.694Z,9.43
2019-04-30T21:58:20.459Z,9.43
2019-04-30T22:01:07.358Z,9.19
2019-04-30T22:03:36.095Z,9.19
2019-04-30T22:06:04.674Z,9.09
2019-04-30T22:08:33.439Z,9.03
2019-04-30T22:11:05.190Z,9.01
2019-04-30T22:13:33.753Z,9.02
2019-04-30T22:16:02.418Z,8.98
2019-04-30T22:18:34.249Z,8.89
2019-04-30T22:21:02.837Z,8.89
2019-04-30T22:23:31.585Z,9.01
2019-04-30T22:26:00.180Z,8.85
2019-04-30T22:28:29.030Z,8.73
2019-04-30T22:30:58.591Z,8.73
2019-04-30T22:33:29.205Z,8.62
2019-04-30T22:36:13.158Z,8.67
2019-04-30T22:39:00.093Z,8.76
2019-04-30T22:41:29.821Z,8.80
2019-04-30T22:44:01.480Z,8.77
2019-04-30T22:46:30.133Z,8.77
2019-04-30T22:48:58.709Z,8.70
2019-04-30T22:51:29.292Z,8.63
2019-04-30T22:53:57.853Z,8.63
2019-04-30T22:56:26.615Z,8.57
2019-04-30T22:58:55.194Z,8.60
2019-04-30T23:01:45.083Z,8.63
2019-04-30T23:04:19.479Z,8.70
2019-04-30T23:06:48.453Z,8.67
2019-04-30T23:09:17.794Z,8.60
2019-04-30T23:11:46.808Z,8.49
2019-04-30T23:14:17.364Z,8.49
2019-04-30T23:16:46.306Z,8.39
2019-04-30T23:19:15.096Z,8.31
2019-04-30T23:21:43.837Z,8.22
2019-04-30T23:24:12.386Z,8.17
2019-04-30T23:26:40.948Z,8.13
2019-04-30T23:29:09.511Z,8.13
2019-04-30T23:31:38.081Z,8.22
2019-04-30T23:34:17.420Z,8.24
2019-04-30T23:36:37.396Z,8.21
2019-04-30T23:39:06.027Z,8.11
2019-04-30T23:41:34.605Z,8.08
2019-04-30T23:44:03.152Z,8.11
2019-04-30T23:46:31.739Z,8.17
2019-04-30T23:49:00.601Z,8.19
2019-04-30T23:51:29.202Z,8.20
2019-04-30T23:53:59.120Z,8.14
2019-04-30T23:56:27.704Z,8.12
2019-04-30T23:58:56.280Z,8.14
